createdAt,value
2022-10-29T00:02:21.360Z,9.32
2022-10-29T00:04:48.624Z,7.95
2022-10-29T00:07:15.782Z,8.85
2022-10-29T00:09:43.007Z,8.18
2022-10-29T00:12:10.322Z,8.50
2022-10-29T00:14:37.794Z,9.48
2022-10-29T00:17:05.010Z,8.75
2022-10-29T00:19:32.200Z,8.98
2022-10-29T00:21:59.384Z,9.10
2022-10-29T00:24:26.562Z,8.77
2022-10-29T00:26:53.765Z,9.40
2022-10-29T00:29:24.714Z,8.95
2022-10-29T00:31:52.715Z,9.23
2022-10-29T00:34:19.911Z,9.07
2022-10-29T00:36:47.096Z,9.20
2022-10-29T00:39:15.749Z,9.20
2022-10-29T00:41:43.312Z,8.23
2022-10-29T00:44:22.493Z,8.75
2022-10-29T00:46:55.400Z,8.55
2022-10-29T00:49:24.816Z,9.15
2022-10-29T00:51:52.393Z,7.75
2022-10-29T00:54:19.826Z,8.90
2022-10-29T00:56:49.731Z,8.65
2022-10-29T00:59:18.024Z,8.02
2022-10-29T01:01:46.904Z,7.78
2022-10-29T01:04:14.058Z,7.35
2022-10-29T01:06:46.963Z,7.32
2022-10-29T01:09:13.987Z,8.63
2022-10-29T01:11:40.821Z,9.15
2022-10-29T01:14:23.242Z,8.20
2022-10-29T01:17:04.787Z,8.23
2022-10-29T01:19:50.729Z,9.77
2022-10-29T01:22:17.877Z,9.25
2022-10-29T01:24:45.182Z,8.73
2022-10-29T01:27:18.465Z,8.13
2022-10-29T01:29:52.259Z,8.82
2022-10-29T01:32:45.626Z,8.77
2022-10-29T01:35:19.582Z,10.45
2022-10-29T01:37:52.712Z,9.18
2022-10-29T01:40:19.876Z,8.88
2022-10-29T01:42:53.935Z,10.18
2022-10-29T01:45:21.370Z,8.75
2022-10-29T01:47:53.609Z,7.93
2022-10-29T01:50:22.544Z,8.65
2022-10-29T01:52:50.375Z,8.20
2022-10-29T01:55:21.494Z,8.73
2022-10-29T01:57:48.646Z,9.18
2022-10-29T02:00:17.691Z,9.07
2022-10-29T02:03:03.436Z,8.35
2022-10-29T02:05:37.124Z,8.45
2022-10-29T02:08:19.380Z,7.13
2022-10-29T02:10:55.861Z,9.48
2022-10-29T02:13:25.474Z,9.32
2022-10-29T02:15:54.507Z,8.20
2022-10-29T02:18:21.831Z,8.93
2022-10-29T02:20:48.642Z,9.38
2022-10-29T02:23:16.729Z,8.55
2022-10-29T02:25:43.719Z,8.55
2022-10-29T02:28:10.563Z,9.05
2022-10-29T02:30:37.361Z,8.45
2022-10-29T02:33:04.174Z,8.57
2022-10-29T02:35:30.924Z,8.93
2022-10-29T02:37:57.713Z,8.55
2022-10-29T02:40:24.517Z,9.63
2022-10-29T02:42:51.300Z,8.65
2022-10-29T02:45:18.482Z,8.68
2022-10-29T02:47:45.638Z,9.18
2022-10-29T02:50:12.886Z,8.85
2022-10-29T02:52:41.006Z,7.97
2022-10-29T02:55:08.366Z,8.57
2022-10-29T02:57:35.471Z,9.65
2022-10-29T03:00:02.609Z,8.95
2022-10-29T03:02:29.974Z,9.35
2022-10-29T03:04:57.776Z,9.18
2022-10-29T03:07:24.698Z,8.38
2022-10-29T03:09:51.543Z,8.45
2022-10-29T03:12:18.330Z,8.02
2022-10-29T03:14:45.118Z,8.55
2022-10-29T03:17:12.016Z,8.45
2022-10-29T03:19:39.135Z,9.00
2022-10-29T03:22:05.908Z,8.80
2022-10-29T03:24:32.711Z,8.60
2022-10-29T03:26:59.473Z,7.68
2022-10-29T03:29:26.247Z,8.93
2022-10-29T03:31:53.190Z,7.75
2022-10-29T03:34:19.932Z,7.85
2022-10-29T03:36:46.720Z,8.98
2022-10-29T03:39:13.530Z,8.80
2022-10-29T03:41:40.282Z,8.70
2022-10-29T03:44:07.046Z,8.27
2022-10-29T03:46:34.262Z,8.70
2022-10-29T03:49:01.166Z,9.07
2022-10-29T03:51:28.972Z,8.38
2022-10-29T03:53:55.996Z,9.05
2022-10-29T03:56:22.749Z,8.57
2022-10-29T03:58:49.748Z,8.63
2022-10-29T04:01:16.668Z,8.95
2022-10-29T04:03:44.293Z,9.18
2022-10-29T04:06:14.227Z,9.45
2022-10-29T04:08:41.274Z,8.27
2022-10-29T04:11:11.948Z,9.13
2022-10-29T04:13:39.215Z,9.30
2022-10-29T04:16:10.291Z,9.70
2022-10-29T04:18:37.400Z,7.93
2022-10-29T04:26:34.654Z,9.35
2022-10-29T04:29:25.901Z,7.57
2022-10-29T04:31:52.677Z,9.18
2022-10-29T04:34:19.447Z,8.32
2022-10-29T04:36:46.268Z,9.23
2022-10-29T04:39:13.087Z,8.52
2022-10-29T04:41:40.011Z,9.40
2022-10-29T04:44:06.871Z,7.45
2022-10-29T04:46:33.671Z,9.45
2022-10-29T04:49:00.721Z,8.43
2022-10-29T04:51:30.017Z,9.27
2022-10-29T04:53:56.817Z,8.82
2022-10-29T04:56:24.689Z,8.13
2022-10-29T04:58:54.993Z,8.55
2022-10-29T05:01:21.954Z,8.80
2022-10-29T05:03:49.243Z,12.20
2022-10-29T05:06:20.192Z,8.88
2022-10-29T05:08:47.543Z,7.35
2022-10-29T05:11:15.831Z,7.57
2022-10-29T05:13:46.354Z,8.30
2022-10-29T05:16:16.214Z,8.13
2022-10-29T05:18:43.196Z,7.50
2022-10-29T05:21:10.053Z,9.07
2022-10-29T05:23:36.802Z,8.00
2022-10-29T05:26:03.673Z,8.23
2022-10-29T05:28:31.690Z,8.32
2022-10-29T05:31:01.584Z,7.20
2022-10-29T05:33:28.421Z,8.30
2022-10-29T05:35:55.282Z,7.85
2022-10-29T05:38:23.569Z,7.20
2022-10-29T05:40:51.828Z,7.53
2022-10-29T05:43:18.683Z,6.95
2022-10-29T05:45:45.817Z,8.07
2022-10-29T05:50:39.945Z,8.70
2022-10-29T05:53:09.650Z,7.18
2022-10-29T05:55:36.751Z,7.10
2022-10-29T05:58:06.601Z,7.70
2022-10-29T06:00:36.913Z,6.85
2022-10-29T06:03:04.169Z,6.95
2022-10-29T06:05:31.017Z,7.47
2022-10-29T06:07:59.563Z,8.60
2022-10-29T06:10:30.000Z,7.75
2022-10-29T06:12:56.872Z,9.48
2022-10-29T06:15:24.172Z,9.30
2022-10-29T06:17:51.532Z,9.07
2022-10-29T06:20:20.581Z,7.75
2022-10-29T06:22:48.236Z,7.28
2022-10-29T06:25:15.461Z,6.60
2022-10-29T06:27:42.627Z,8.60
2022-10-29T06:30:10.141Z,7.00
2022-10-29T06:32:37.280Z,7.68
2022-10-29T06:35:04.573Z,7.18
2022-10-29T06:37:34.593Z,7.65
2022-10-29T06:40:06.977Z,6.97
2022-10-29T06:42:34.156Z,7.93
2022-10-29T06:45:01.281Z,7.50
2022-10-29T06:47:28.457Z,7.75
2022-10-29T06:49:55.778Z,6.80
2022-10-29T06:52:22.974Z,7.15
2022-10-29T06:54:50.188Z,8.13
2022-10-29T06:57:17.365Z,7.22
2022-10-29T06:59:44.492Z,8.20
2022-10-29T07:02:13.407Z,7.68
2022-10-29T07:04:40.645Z,7.57
2022-10-29T07:07:07.917Z,7.28
2022-10-29T07:09:35.312Z,7.57
2022-10-29T07:12:02.483Z,6.95
2022-10-29T07:14:29.664Z,6.95
2022-10-29T07:16:56.876Z,7.57
2022-10-29T07:19:24.133Z,7.82
2022-10-29T07:21:51.321Z,7.10
2022-10-29T07:24:18.543Z,7.55
2022-10-29T07:26:45.795Z,7.25
2022-10-29T07:29:12.938Z,6.40
2022-10-29T07:31:40.557Z,8.18
2022-10-29T07:34:07.821Z,8.10
2022-10-29T07:36:34.969Z,6.53
2022-10-29T07:39:04.146Z,6.55
2022-10-29T07:41:32.135Z,6.65
2022-10-29T07:43:59.273Z,6.30
2022-10-29T07:46:26.794Z,6.22
2022-10-29T07:48:53.991Z,6.22
2022-10-29T07:51:21.564Z,9.27
2022-10-29T07:53:48.819Z,6.57
2022-10-29T07:56:15.950Z,11.35
2022-10-29T07:58:43.106Z,7.15
2022-10-29T08:01:10.314Z,6.20
2022-10-29T08:03:40.213Z,5.57
2022-10-29T08:06:07.437Z,4.95
2022-10-29T08:08:38.111Z,5.10
2022-10-29T08:11:05.689Z,5.63
2022-10-29T08:13:32.889Z,6.22
2022-10-29T08:16:00.076Z,6.13
2022-10-29T08:18:27.385Z,5.22
2022-10-29T08:20:54.563Z,6.10
2022-10-29T08:23:21.894Z,5.72
2022-10-29T08:25:49.126Z,6.10
2022-10-29T08:28:16.567Z,5.05
2022-10-29T08:30:44.188Z,5.53
2022-10-29T08:33:11.717Z,5.70
2022-10-29T08:35:39.309Z,5.40
2022-10-29T08:38:06.566Z,5.57
2022-10-29T08:40:52.383Z,6.00
2022-10-29T08:43:34.587Z,5.25
2022-10-29T08:46:02.351Z,6.05
2022-10-29T08:48:40.125Z,5.07
2022-10-29T08:51:30.701Z,4.78
2022-10-29T08:56:53.868Z,5.05
2022-10-29T08:59:22.008Z,5.43
2022-10-29T09:01:49.460Z,5.28
2022-10-29T09:04:20.727Z,5.38
2022-10-29T09:06:50.974Z,4.70
2022-10-29T09:09:18.119Z,5.03
2022-10-29T09:12:03.744Z,5.65
2022-10-29T09:14:36.930Z,4.47
2022-10-29T09:17:11.597Z,5.57
2022-10-29T09:19:41.888Z,5.20
2022-10-29T09:22:22.850Z,5.32
2022-10-29T09:25:15.643Z,9.35
2022-10-29T09:28:01.304Z,6.18
2022-10-29T09:30:34.732Z,5.00
2022-10-29T09:33:21.475Z,4.95
2022-10-29T09:35:50.512Z,5.35
2022-10-29T09:38:26.046Z,4.72
2022-10-29T09:40:53.270Z,5.13
2022-10-29T09:43:20.456Z,6.60
2022-10-29T09:45:58.185Z,5.28
2022-10-29T09:48:28.399Z,5.50
2022-10-29T09:51:02.578Z,5.15
2022-10-29T09:53:29.812Z,4.78
2022-10-29T09:55:57.046Z,5.75
2022-10-29T09:58:25.495Z,5.20
2022-10-29T10:00:53.065Z,5.43
2022-10-29T10:03:26.472Z,4.90
2022-10-29T10:06:10.567Z,5.25
2022-10-29T10:08:59.597Z,4.65
2022-10-29T10:11:36.269Z,6.28
2022-10-29T10:14:06.281Z,4.60
2022-10-29T10:16:34.027Z,5.63
2022-10-29T10:19:01.504Z,5.35
2022-10-29T10:21:28.636Z,4.60
2022-10-29T10:23:57.916Z,4.82
2022-10-29T10:26:36.491Z,4.78
2022-10-29T10:29:14.878Z,4.70
2022-10-29T10:31:45.107Z,4.80
2022-10-29T10:34:20.274Z,5.35
2022-10-29T10:36:58.226Z,5.00
2022-10-29T10:39:28.797Z,5.63
2022-10-29T10:41:57.249Z,4.45
2022-10-29T10:44:24.515Z,6.10
2022-10-29T10:46:54.480Z,6.15
2022-10-29T10:49:30.963Z,4.75
2022-10-29T10:51:59.043Z,4.53
2022-10-29T10:54:38.513Z,4.50
2022-10-29T10:57:11.859Z,4.28
2022-10-29T10:59:45.634Z,4.85
2022-10-29T11:02:25.452Z,4.47
2022-10-29T11:04:58.404Z,4.53
2022-10-29T11:07:32.169Z,4.68
2022-10-29T11:10:02.697Z,4.82
2022-10-29T11:12:47.387Z,4.40
2022-10-29T11:15:14.550Z,4.50
2022-10-29T11:17:54.343Z,4.57
2022-10-29T11:20:27.724Z,4.63
2022-10-29T11:23:00.898Z,4.63
2022-10-29T11:25:51.160Z,4.65
2022-10-29T11:28:44.705Z,4.75
2022-10-29T11:31:11.867Z,6.55
2022-10-29T11:33:52.944Z,4.78
2022-10-29T11:36:23.734Z,4.55
2022-10-29T11:38:50.872Z,4.22
2022-10-29T11:41:27.335Z,5.60
2022-10-29T11:43:54.506Z,4.85
2022-10-29T11:46:31.054Z,5.78
2022-10-29T11:49:07.199Z,5.30
2022-10-29T11:51:52.300Z,5.57
2022-10-29T11:54:25.750Z,4.47
2022-10-29T11:57:01.360Z,5.25
2022-10-29T11:59:47.516Z,5.60
2022-10-29T12:02:27.272Z,4.32
2022-10-29T12:04:54.439Z,4.85
2022-10-29T12:07:24.378Z,4.93
2022-10-29T12:10:13.246Z,4.50
2022-10-29T12:12:46.493Z,4.50
2022-10-29T12:15:25.054Z,4.88
2022-10-29T12:18:02.191Z,4.45
2022-10-29T12:20:36.918Z,5.22
2022-10-29T12:23:15.109Z,4.45
2022-10-29T12:25:59.971Z,4.40
2022-10-29T12:28:30.194Z,10.13
2022-10-29T12:31:15.926Z,4.97
2022-10-29T12:33:46.111Z,4.80
2022-10-29T12:36:42.891Z,4.30
2022-10-29T12:39:40.560Z,4.63
2022-10-29T12:42:13.714Z,4.50
2022-10-29T12:44:45.494Z,4.22
2022-10-29T12:47:20.157Z,4.45
2022-10-29T12:49:56.090Z,5.32
2022-10-29T12:52:23.480Z,3.92
2022-10-29T12:54:51.130Z,4.63
2022-10-29T12:57:18.799Z,4.63
2022-10-29T12:59:46.226Z,4.88
2022-10-29T13:02:19.764Z,7.75
2022-10-29T13:05:05.609Z,5.07
2022-10-29T13:07:33.020Z,4.07
2022-10-29T13:10:18.745Z,3.92
2022-10-29T13:13:01.454Z,4.13
2022-10-29T13:15:30.982Z,5.43
2022-10-29T13:18:00.593Z,4.65
2022-10-29T13:20:34.609Z,4.45
2022-10-29T13:23:08.145Z,3.55
2022-10-29T13:25:38.053Z,3.95
2022-10-29T13:28:08.317Z,5.00
2022-10-29T13:30:36.969Z,4.85
2022-10-29T13:33:23.236Z,3.75
2022-10-29T13:35:53.589Z,4.65
2022-10-29T13:38:20.894Z,4.80
2022-10-29T13:40:54.339Z,4.00
2022-10-29T13:43:22.197Z,4.57
2022-10-29T13:45:51.442Z,4.40
2022-10-29T13:48:24.081Z,4.10
2022-10-29T13:50:53.268Z,4.45
2022-10-29T13:53:23.924Z,3.92
2022-10-29T13:55:51.302Z,4.40
2022-10-29T13:58:25.943Z,4.63
2022-10-29T14:00:54.311Z,19.67
2022-10-29T14:03:49.975Z,5.13
2022-10-29T14:06:22.118Z,4.32
2022-10-29T14:09:19.007Z,4.22
2022-10-29T14:11:48.706Z,4.60
2022-10-29T14:14:23.531Z,4.65
2022-10-29T14:16:50.796Z,4.68
2022-10-29T14:19:22.158Z,5.60
2022-10-29T14:21:49.411Z,4.03
2022-10-29T14:24:17.460Z,4.32
2022-10-29T14:26:46.123Z,4.80
2022-10-29T14:29:23.504Z,3.85
2022-10-29T14:32:09.514Z,3.90
2022-10-29T14:34:36.940Z,4.93
2022-10-29T14:37:07.855Z,6.38
2022-10-29T14:39:55.246Z,4.88
2022-10-29T14:42:43.099Z,4.38
2022-10-29T14:45:21.328Z,4.55
2022-10-29T14:47:50.766Z,5.32
2022-10-29T14:50:22.980Z,4.15
2022-10-29T14:52:57.820Z,5.35
2022-10-29T14:55:36.036Z,4.63
2022-10-29T14:58:03.126Z,5.13
2022-10-29T15:00:31.820Z,4.25
2022-10-29T15:02:59.945Z,4.82
2022-10-29T15:05:29.033Z,4.55
2022-10-29T15:08:05.919Z,5.60
2022-10-29T15:10:33.324Z,4.45
2022-10-29T15:13:15.038Z,4.47
2022-10-29T15:15:51.650Z,5.22
2022-10-29T15:18:21.431Z,4.30
2022-10-29T15:20:48.650Z,5.65
2022-10-29T15:23:20.929Z,4.53
2022-10-29T15:25:49.200Z,6.03
2022-10-29T15:28:22.987Z,4.50
2022-10-29T15:30:50.308Z,4.60
2022-10-29T15:33:18.866Z,5.13
2022-10-29T15:35:52.122Z,5.10
2022-10-29T15:38:31.450Z,5.60
2022-10-29T15:41:17.583Z,5.32
2022-10-29T15:43:56.666Z,5.05
2022-10-29T15:46:24.876Z,4.82
2022-10-29T15:48:52.347Z,4.57
2022-10-29T15:51:21.997Z,4.25
2022-10-29T15:53:49.567Z,4.63
2022-10-29T15:56:16.990Z,4.55
2022-10-29T15:58:44.419Z,4.65
2022-10-29T16:01:13.539Z,4.63
2022-10-29T16:03:41.014Z,4.65
2022-10-29T16:06:09.356Z,6.25
2022-10-29T16:08:47.882Z,4.65
2022-10-29T16:11:16.405Z,5.97
2022-10-29T16:13:44.122Z,5.03
2022-10-29T16:16:13.614Z,4.40
2022-10-29T16:18:40.811Z,5.47
2022-10-29T16:21:08.364Z,4.88
2022-10-29T16:23:38.352Z,3.78
2022-10-29T16:26:05.674Z,4.65
2022-10-29T16:28:32.848Z,5.45
2022-10-29T16:31:00.696Z,5.15
2022-10-29T16:33:28.082Z,4.47
2022-10-29T16:35:55.258Z,4.88
2022-10-29T16:38:22.643Z,4.80
2022-10-29T16:40:51.671Z,5.20
2022-10-29T16:43:18.821Z,5.95
2022-10-29T16:45:46.085Z,4.25
2022-10-29T16:48:13.333Z,5.05
2022-10-29T16:50:40.525Z,4.57
2022-10-29T16:53:10.097Z,4.65
2022-10-29T16:55:38.252Z,4.40
2022-10-29T16:58:14.681Z,4.88
2022-10-29T17:00:41.908Z,5.43
2022-10-29T17:03:11.647Z,10.27
2022-10-29T17:05:40.481Z,6.20
2022-10-29T17:08:08.236Z,5.90
2022-10-29T17:10:36.026Z,4.80
2022-10-29T17:13:03.532Z,5.45
2022-10-29T17:15:30.921Z,5.03
2022-10-29T17:17:58.608Z,4.80
2022-10-29T17:20:26.220Z,5.50
2022-10-29T17:22:53.671Z,4.28
2022-10-29T17:25:20.858Z,5.68
2022-10-29T17:27:48.120Z,5.20
2022-10-29T17:30:15.286Z,5.43
2022-10-29T17:32:43.512Z,7.03
2022-10-29T17:35:10.676Z,5.43
2022-10-29T17:37:38.476Z,6.93
2022-10-29T17:40:07.112Z,5.18
2022-10-29T17:42:35.809Z,4.88
2022-10-29T17:45:02.998Z,5.10
2022-10-29T17:47:30.652Z,4.82
2022-10-29T17:49:57.832Z,6.95
2022-10-29T17:52:25.053Z,5.35
2022-10-29T17:54:52.469Z,6.30
2022-10-29T17:57:19.677Z,5.32
2022-10-29T17:59:46.979Z,6.22
2022-10-29T18:02:14.303Z,6.28
2022-10-29T18:04:41.619Z,6.25
2022-10-29T18:07:09.357Z,6.13
2022-10-29T18:09:36.496Z,9.10
2022-10-29T18:12:03.869Z,8.85
2022-10-29T18:14:31.157Z,6.38
2022-10-29T18:16:58.842Z,5.40
2022-10-29T18:19:26.016Z,5.70
2022-10-29T18:21:53.196Z,6.28
2022-10-29T18:24:22.487Z,5.00
2022-10-29T18:26:50.341Z,6.75
2022-10-29T18:29:17.480Z,5.25
2022-10-29T18:31:47.433Z,6.95
2022-10-29T18:34:15.409Z,9.77
2022-10-29T18:36:43.396Z,6.20
2022-10-29T18:39:10.649Z,6.03
2022-10-29T18:41:38.209Z,5.40
2022-10-29T18:44:05.527Z,5.28
2022-10-29T18:46:33.047Z,4.90
2022-10-29T18:49:00.932Z,5.40
2022-10-29T18:51:29.792Z,4.60
2022-10-29T18:53:58.372Z,5.95
2022-10-29T18:56:27.133Z,4.50
2022-10-29T18:58:55.749Z,4.85
2022-10-29T19:01:27.460Z,4.45
2022-10-29T19:03:55.988Z,5.22
2022-10-29T19:06:24.000Z,5.43
2022-10-29T19:08:51.682Z,4.70
2022-10-29T19:11:20.741Z,5.13
2022-10-29T19:13:51.847Z,4.85
2022-10-29T19:16:19.233Z,4.45
2022-10-29T19:18:46.505Z,5.03
2022-10-29T19:21:15.016Z,4.70
2022-10-29T19:23:42.248Z,4.10
2022-10-29T19:26:10.863Z,4.57
2022-10-29T19:28:38.184Z,4.43
2022-10-29T19:31:06.586Z,5.07
2022-10-29T19:33:33.783Z,4.88
2022-10-29T19:36:00.994Z,4.82
2022-10-29T19:38:28.537Z,4.68
2022-10-29T19:40:58.533Z,4.72
2022-10-29T19:43:26.402Z,4.03
2022-10-29T19:45:54.008Z,4.13
2022-10-29T19:48:21.404Z,5.15
2022-10-29T19:50:56.468Z,5.40
2022-10-29T19:53:24.325Z,4.95
2022-10-29T19:55:51.993Z,4.78
2022-10-29T19:58:19.772Z,4.63
2022-10-29T20:00:47.068Z,4.47
2022-10-29T20:03:14.806Z,4.40
2022-10-29T20:05:42.425Z,4.85
2022-10-29T20:08:13.068Z,4.50
2022-10-29T20:10:43.039Z,4.45
2022-10-29T20:13:10.377Z,5.07
2022-10-29T20:15:39.987Z,4.70
2022-10-29T20:18:07.204Z,5.18
2022-10-29T20:20:34.761Z,4.32
2022-10-29T20:23:02.259Z,5.05
2022-10-29T20:25:29.753Z,5.25
2022-10-29T20:27:58.173Z,4.70
2022-10-29T20:30:25.353Z,5.50
2022-10-29T20:32:52.557Z,5.35
2022-10-29T20:35:19.829Z,5.05
2022-10-29T20:37:46.975Z,4.68
2022-10-29T20:40:14.136Z,4.85
2022-10-29T20:42:41.561Z,4.13
2022-10-29T20:45:09.311Z,5.00
2022-10-29T20:47:36.458Z,4.55
2022-10-29T20:50:03.654Z,4.25
2022-10-29T20:52:30.830Z,8.40
2022-10-29T20:54:58.023Z,5.28
2022-10-29T20:57:25.167Z,4.90
2022-10-29T20:59:52.371Z,4.43
2022-10-29T21:02:19.730Z,5.05
2022-10-29T21:04:47.040Z,6.60
2022-10-29T21:07:14.237Z,4.82
2022-10-29T21:09:41.518Z,4.65
2022-10-29T21:12:09.464Z,4.40
2022-10-29T21:14:36.641Z,5.00
2022-10-29T21:17:03.800Z,4.72
2022-10-29T21:19:32.192Z,5.45
2022-10-29T21:21:59.397Z,3.92
2022-10-29T21:24:26.533Z,5.30
2022-10-29T21:26:53.670Z,4.35
2022-10-29T21:29:20.806Z,4.93
2022-10-29T21:31:51.134Z,5.25
2022-10-29T21:34:18.284Z,4.78
2022-10-29T21:36:45.458Z,5.53
2022-10-29T21:39:12.294Z,4.60
2022-10-29T21:41:42.384Z,4.95
2022-10-29T21:44:09.479Z,5.15
2022-10-29T21:46:40.355Z,4.43
2022-10-29T21:49:07.175Z,4.93
2022-10-29T21:51:35.320Z,4.97
2022-10-29T21:54:02.177Z,4.90
2022-10-29T21:56:28.928Z,4.90
2022-10-29T21:58:55.763Z,4.78
2022-10-29T22:01:22.815Z,5.72
2022-10-29T22:03:49.701Z,5.13
2022-10-29T22:06:19.172Z,4.75
2022-10-29T22:08:47.196Z,5.00
2022-10-29T22:11:14.933Z,5.53
2022-10-29T22:13:41.777Z,5.07
2022-10-29T22:16:10.011Z,4.93
2022-10-29T22:18:37.166Z,5.60
2022-10-29T22:21:24.635Z,5.30
2022-10-29T22:23:53.574Z,5.53
2022-10-29T22:26:22.902Z,4.88
2022-10-29T22:28:50.237Z,4.70
2022-10-29T22:31:18.532Z,5.00
2022-10-29T22:33:45.994Z,5.07
2022-10-29T22:36:15.677Z,7.20
2022-10-29T22:38:42.501Z,5.53
2022-10-29T22:41:11.463Z,5.22
2022-10-29T22:43:39.278Z,5.38
2022-10-29T22:46:07.707Z,6.28
2022-10-29T22:48:35.148Z,7.07
2022-10-29T22:51:12.219Z,5.28
2022-10-29T22:53:39.479Z,5.50
2022-10-29T22:56:09.638Z,5.30
2022-10-29T22:58:36.350Z,5.50
2022-10-29T23:01:09.678Z,5.72
2022-10-29T23:03:39.167Z,5.05
2022-10-29T23:06:09.277Z,5.47
2022-10-29T23:08:36.555Z,4.72
2022-10-29T23:11:12.511Z,4.90
2022-10-29T23:13:39.730Z,4.63
2022-10-29T23:16:07.210Z,5.80
2022-10-29T23:18:34.102Z,5.47
2022-10-29T23:21:05.909Z,6.95
2022-10-29T23:23:34.238Z,5.53
2022-10-29T23:26:02.289Z,5.20
2022-10-29T23:28:37.403Z,5.05
2022-10-29T23:31:06.364Z,5.40
2022-10-29T23:33:33.983Z,4.70
2022-10-29T23:36:09.290Z,5.40
2022-10-29T23:38:36.157Z,5.10
2022-10-29T23:41:03.547Z,5.72
2022-10-29T23:43:30.543Z,5.13
2022-10-29T23:45:57.606Z,5.30
2022-10-29T23:48:24.691Z,4.60
2022-10-29T23:50:51.905Z,5.18
2022-10-29T23:53:18.955Z,5.18
2022-10-29T23:55:46.086Z,5.88
2022-10-29T23:58:13.693Z,5.65
